sensor_id;sensor_type;location;lat;lon;timestamp;P1;durP1;ratioP1;P2;durP2;ratioP2
86093;SDS011;76710;42.684;23.330;2024-03-23T00:55:43;22.17;;;9.57;;
86093;SDS011;76710;42.684;23.330;2024-03-23T00:58:09;19.85;;;8.70;;
86093;SDS011;76710;42.684;23.330;2024-03-23T01:00:35;18.88;;;8.45;;
86093;SDS011;76710;42.684;23.330;2024-03-23T01:03:00;21.58;;;8.25;;
86093;SDS011;76710;42.684;23.330;2024-03-23T01:05:26;17.55;;;7.82;;
86093;SDS011;76710;42.684;23.330;2024-03-23T01:07:51;17.13;;;8.50;;
86093;SDS011;76710;42.684;23.330;2024-03-23T01:10:17;18.10;;;8.30;;
86093;SDS011;76710;42.684;23.330;2024-03-23T01:12:42;17.50;;;8.48;;
86093;SDS011;76710;42.684;23.330;2024-03-23T01:15:08;17.35;;;7.85;;
86093;SDS011;76710;42.684;23.330;2024-03-23T01:17:34;17.15;;;7.68;;
86093;SDS011;76710;42.684;23.330;2024-03-23T01:19:59;19.88;;;7.93;;
86093;SDS011;76710;42.684;23.330;2024-03-23T01:22:25;20.95;;;8.52;;
86093;SDS011;76710;42.684;23.330;2024-03-23T01:24:51;19.05;;;8.68;;
86093;SDS011;76710;42.684;23.330;2024-03-23T01:27:16;17.42;;;8.48;;
86093;SDS011;76710;42.684;23.330;2024-03-23T01:29:42;17.77;;;8.00;;
86093;SDS011;76710;42.684;23.330;2024-03-23T01:32:07;17.98;;;8.38;;
86093;SDS011;76710;42.684;23.330;2024-03-23T01:34:33;15.32;;;7.57;;
86093;SDS011;76710;42.684;23.330;2024-03-23T01:36:58;20.48;;;8.57;;
86093;SDS011;76710;42.684;23.330;2024-03-23T01:39:24;15.35;;;7.43;;
86093;SDS011;76710;42.684;23.330;2024-03-23T01:41:50;18.10;;;8.27;;
86093;SDS011;76710;42.684;23.330;2024-03-23T01:44:16;21.13;;;7.72;;
86093;SDS011;76710;42.684;23.330;2024-03-23T01:46:42;17.00;;;7.80;;
86093;SDS011;76710;42.684;23.330;2024-03-23T01:49:08;18.48;;;9.05;;
86093;SDS011;76710;42.684;23.330;2024-03-23T01:51:34;16.52;;;7.43;;
86093;SDS011;76710;42.684;23.330;2024-03-23T01:54:01;16.23;;;7.88;;
86093;SDS011;76710;42.684;23.330;2024-03-23T01:56:30;19.55;;;8.32;;
86093;SDS011;76710;42.684;23.330;2024-03-23T01:58:58;17.75;;;8.70;;
86093;SDS011;76710;42.684;23.330;2024-03-23T02:01:24;21.00;;;8.48;;
86093;SDS011;76710;42.684;23.330;2024-03-23T02:03:50;19.48;;;9.02;;
86093;SDS011;76710;42.684;23.330;2024-03-23T02:06:15;17.83;;;8.27;;
86093;SDS011;76710;42.684;23.330;2024-03-23T02:08:41;18.88;;;9.25;;
86093;SDS011;76710;42.684;23.330;2024-03-23T02:11:07;19.33;;;9.32;;
86093;SDS011;76710;42.684;23.330;2024-03-23T02:13:32;20.30;;;8.90;;
86093;SDS011;76710;42.684;23.330;2024-03-23T02:15:58;21.92;;;8.45;;
86093;SDS011;76710;42.684;23.330;2024-03-23T02:18:27;25.88;;;8.82;;
86093;SDS011;76710;42.684;23.330;2024-03-23T02:21:02;16.67;;;8.38;;
86093;SDS011;76710;42.684;23.330;2024-03-23T02:23:28;22.17;;;9.15;;
86093;SDS011;76710;42.684;23.330;2024-03-23T02:25:54;22.88;;;8.90;;
86093;SDS011;76710;42.684;23.330;2024-03-23T02:28:20;22.45;;;9.45;;
86093;SDS011;76710;42.684;23.330;2024-03-23T02:30:47;23.17;;;10.23;;
86093;SDS011;76710;42.684;23.330;2024-03-23T02:33:15;22.02;;;9.65;;
86093;SDS011;76710;42.684;23.330;2024-03-23T02:35:41;20.83;;;9.70;;
86093;SDS011;76710;42.684;23.330;2024-03-23T02:38:07;23.38;;;9.93;;
86093;SDS011;76710;42.684;23.330;2024-03-23T02:40:32;22.60;;;9.57;;
86093;SDS011;76710;42.684;23.330;2024-03-23T02:42:58;20.83;;;9.65;;
86093;SDS011;76710;42.684;23.330;2024-03-23T02:45:24;23.33;;;10.00;;
86093;SDS011;76710;42.684;23.330;2024-03-23T02:47:49;19.80;;;8.88;;
86093;SDS011;76710;42.684;23.330;2024-03-23T02:50:17;21.83;;;9.48;;
86093;SDS011;76710;42.684;23.330;2024-03-23T02:52:44;19.55;;;8.77;;
86093;SDS011;76710;42.684;23.330;2024-03-23T02:55:10;23.30;;;9.38;;
86093;SDS011;76710;42.684;23.330;2024-03-23T02:57:35;19.80;;;8.73;;
86093;SDS011;76710;42.684;23.330;2024-03-23T03:00:01;19.60;;;9.00;;
86093;SDS011;76710;42.684;23.330;2024-03-23T03:02:26;18.27;;;8.63;;
86093;SDS011;76710;42.684;23.330;2024-03-23T03:04:52;22.98;;;8.38;;
86093;SDS011;76710;42.684;23.330;2024-03-23T03:07:18;21.13;;;8.45;;
86093;SDS011;76710;42.684;23.330;2024-03-23T03:09:43;19.23;;;8.77;;
86093;SDS011;76710;42.684;23.330;2024-03-23T03:12:09;18.75;;;8.80;;
86093;SDS011;76710;42.684;23.330;2024-03-23T03:14:34;23.05;;;8.50;;
86093;SDS011;76710;42.684;23.330;2024-03-23T03:17:00;19.73;;;9.00;;
86093;SDS011;76710;42.684;23.330;2024-03-23T03:19:25;20.90;;;8.73;;
86093;SDS011;76710;42.684;23.330;2024-03-23T03:21:52;19.60;;;9.38;;
86093;SDS011;76710;42.684;23.330;2024-03-23T03:24:18;20.25;;;9.13;;
86093;SDS011;76710;42.684;23.330;2024-03-23T03:26:43;19.55;;;8.43;;
86093;SDS011;76710;42.684;23.330;2024-03-23T03:29:09;17.30;;;8.73;;
86093;SDS011;76710;42.684;23.330;2024-03-23T03:31:35;21.38;;;9.15;;
86093;SDS011;76710;42.684;23.330;2024-03-23T03:34:01;19.02;;;8.70;;
86093;SDS011;76710;42.684;23.330;2024-03-23T03:36:27;18.35;;;8.00;;
86093;SDS011;76710;42.684;23.330;2024-03-23T03:38:53;16.50;;;8.18;;
86093;SDS011;76710;42.684;23.330;2024-03-23T03:41:18;19.73;;;8.15;;
86093;SDS011;76710;42.684;23.330;2024-03-23T03:43:45;15.50;;;7.72;;
86093;SDS011;76710;42.684;23.330;2024-03-23T03:46:10;18.83;;;7.65;;
86093;SDS011;76710;42.684;23.330;2024-03-23T03:48:36;15.18;;;7.10;;
86093;SDS011;76710;42.684;23.330;2024-03-23T03:53:54;15.07;;;7.07;;
86093;SDS011;76710;42.684;23.330;2024-03-23T03:56:19;14.55;;;6.63;;
86093;SDS011;76710;42.684;23.330;2024-03-23T03:58:45;19.20;;;6.97;;
86093;SDS011;76710;42.684;23.330;2024-03-23T04:01:10;17.63;;;6.63;;
86093;SDS011;76710;42.684;23.330;2024-03-23T04:03:36;14.25;;;5.90;;
86093;SDS011;76710;42.684;23.330;2024-03-23T04:06:01;12.60;;;6.47;;
86093;SDS011;76710;42.684;23.330;2024-03-23T04:08:28;14.75;;;6.03;;
86093;SDS011;76710;42.684;23.330;2024-03-23T04:10:53;11.68;;;5.53;;
86093;SDS011;76710;42.684;23.330;2024-03-23T04:13:19;12.05;;;5.43;;
86093;SDS011;76710;42.684;23.330;2024-03-23T04:15:44;11.65;;;5.22;;
86093;SDS011;76710;42.684;23.330;2024-03-23T04:18:10;12.27;;;5.32;;
86093;SDS011;76710;42.684;23.330;2024-03-23T04:20:35;15.02;;;5.45;;
86093;SDS011;76710;42.684;23.330;2024-03-23T04:23:01;16.25;;;5.82;;
86093;SDS011;76710;42.684;23.330;2024-03-23T04:25:26;11.52;;;5.13;;
86093;SDS011;76710;42.684;23.330;2024-03-23T04:27:52;10.85;;;5.20;;
86093;SDS011;76710;42.684;23.330;2024-03-23T04:30:18;13.18;;;6.03;;
86093;SDS011;76710;42.684;23.330;2024-03-23T04:32:44;10.45;;;5.47;;
86093;SDS011;76710;42.684;23.330;2024-03-23T04:35:09;13.70;;;5.80;;
86093;SDS011;76710;42.684;23.330;2024-03-23T04:37:35;14.13;;;5.82;;
86093;SDS011;76710;42.684;23.330;2024-03-23T04:40:01;12.65;;;5.13;;
86093;SDS011;76710;42.684;23.330;2024-03-23T04:42:28;14.43;;;6.05;;
86093;SDS011;76710;42.684;23.330;2024-03-23T04:44:54;13.27;;;5.60;;
86093;SDS011;76710;42.684;23.330;2024-03-23T04:47:20;11.07;;;5.45;;
86093;SDS011;76710;42.684;23.330;2024-03-23T04:49:45;13.88;;;5.82;;
86093;SDS011;76710;42.684;23.330;2024-03-23T04:52:11;11.60;;;5.43;;
86093;SDS011;76710;42.684;23.330;2024-03-23T04:54:37;14.45;;;5.93;;
86093;SDS011;76710;42.684;23.330;2024-03-23T04:57:02;14.75;;;6.00;;
86093;SDS011;76710;42.684;23.330;2024-03-23T04:59:28;14.07;;;6.38;;
86093;SDS011;76710;42.684;23.330;2024-03-23T05:01:53;11.88;;;6.15;;
86093;SDS011;76710;42.684;23.330;2024-03-23T05:04:19;11.15;;;5.63;;
86093;SDS011;76710;42.684;23.330;2024-03-23T05:06:45;14.88;;;5.93;;
86093;SDS011;76710;42.684;23.330;2024-03-23T05:09:10;11.32;;;5.20;;
86093;SDS011;76710;42.684;23.330;2024-03-23T05:11:40;15.00;;;5.40;;
86093;SDS011;76710;42.684;23.330;2024-03-23T05:14:12;11.40;;;5.57;;
86093;SDS011;76710;42.684;23.330;2024-03-23T05:16:39;12.30;;;6.13;;
86093;SDS011;76710;42.684;23.330;2024-03-23T05:19:08;13.18;;;5.25;;
86093;SDS011;76710;42.684;23.330;2024-03-23T05:21:33;13.23;;;6.65;;
86093;SDS011;76710;42.684;23.330;2024-03-23T05:23:59;13.73;;;5.70;;
86093;SDS011;76710;42.684;23.330;2024-03-23T05:26:24;12.98;;;5.68;;
86093;SDS011;76710;42.684;23.330;2024-03-23T05:28:50;17.20;;;6.00;;
86093;SDS011;76710;42.684;23.330;2024-03-23T05:31:25;13.30;;;5.75;;
86093;SDS011;76710;42.684;23.330;2024-03-23T05:33:51;11.07;;;5.55;;
86093;SDS011;76710;42.684;23.330;2024-03-23T05:36:18;13.77;;;5.93;;
86093;SDS011;76710;42.684;23.330;2024-03-23T05:38:44;14.20;;;5.93;;
86093;SDS011;76710;42.684;23.330;2024-03-23T05:41:09;11.88;;;6.18;;
86093;SDS011;76710;42.684;23.330;2024-03-23T05:43:35;14.88;;;6.47;;
86093;SDS011;76710;42.684;23.330;2024-03-23T05:46:00;13.35;;;5.85;;
86093;SDS011;76710;42.684;23.330;2024-03-23T05:48:35;16.08;;;6.20;;
86093;SDS011;76710;42.684;23.330;2024-03-23T05:51:01;13.82;;;6.28;;
86093;SDS011;76710;42.684;23.330;2024-03-23T05:53:27;16.70;;;6.88;;
86093;SDS011;76710;42.684;23.330;2024-03-23T05:56:00;15.98;;;6.18;;
86093;SDS011;76710;42.684;23.330;2024-03-23T05:58:31;14.63;;;6.18;;
86093;SDS011;76710;42.684;23.330;2024-03-23T06:00:57;14.95;;;6.45;;
86093;SDS011;76710;42.684;23.330;2024-03-23T06:03:24;13.43;;;6.82;;
86093;SDS011;76710;42.684;23.330;2024-03-23T06:05:50;15.70;;;6.95;;
86093;SDS011;76710;42.684;23.330;2024-03-23T06:08:16;12.90;;;6.57;;
86093;SDS011;76710;42.684;23.330;2024-03-23T06:10:41;14.20;;;6.97;;
86093;SDS011;76710;42.684;23.330;2024-03-23T06:13:06;13.77;;;7.25;;
86093;SDS011;76710;42.684;23.330;2024-03-23T06:15:33;14.98;;;7.45;;
86093;SDS011;76710;42.684;23.330;2024-03-23T06:18:02;14.27;;;6.95;;
86093;SDS011;76710;42.684;23.330;2024-03-23T06:20:29;16.25;;;7.57;;
86093;SDS011;76710;42.684;23.330;2024-03-23T06:22:54;16.20;;;8.23;;
86093;SDS011;76710;42.684;23.330;2024-03-23T06:25:20;13.07;;;7.43;;
86093;SDS011;76710;42.684;23.330;2024-03-23T06:27:45;15.23;;;7.72;;
86093;SDS011;76710;42.684;23.330;2024-03-23T06:30:11;13.00;;;7.85;;
86093;SDS011;76710;42.684;23.330;2024-03-23T06:32:37;17.02;;;8.15;;
86093;SDS011;76710;42.684;23.330;2024-03-23T06:35:02;15.50;;;8.20;;
86093;SDS011;76710;42.684;23.330;2024-03-23T06:37:33;15.57;;;8.45;;
86093;SDS011;76710;42.684;23.330;2024-03-23T06:40:08;14.63;;;8.10;;
86093;SDS011;76710;42.684;23.330;2024-03-23T06:45:00;14.35;;;8.45;;
86093;SDS011;76710;42.684;23.330;2024-03-23T06:47:27;16.45;;;8.52;;
86093;SDS011;76710;42.684;23.330;2024-03-23T06:49:53;14.95;;;8.52;;
86093;SDS011;76710;42.684;23.330;2024-03-23T06:52:19;15.82;;;9.00;;
86093;SDS011;76710;42.684;23.330;2024-03-23T06:54:44;15.45;;;8.73;;
86093;SDS011;76710;42.684;23.330;2024-03-23T06:57:10;15.73;;;8.35;;
86093;SDS011;76710;42.684;23.330;2024-03-23T06:59:37;17.30;;;8.32;;
86093;SDS011;76710;42.684;23.330;2024-03-23T07:02:03;18.60;;;8.52;;
86093;SDS011;76710;42.684;23.330;2024-03-23T07:04:29;18.13;;;9.95;;
86093;SDS011;76710;42.684;23.330;2024-03-23T07:06:55;17.48;;;8.95;;
86093;SDS011;76710;42.684;23.330;2024-03-23T07:09:20;17.92;;;9.10;;
86093;SDS011;76710;42.684;23.330;2024-03-23T07:11:50;19.88;;;9.15;;
86093;SDS011;76710;42.684;23.330;2024-03-23T07:14:15;15.05;;;8.18;;
86093;SDS011;76710;42.684;23.330;2024-03-23T07:16:41;17.90;;;9.70;;
86093;SDS011;76710;42.684;23.330;2024-03-23T07:19:06;18.75;;;9.43;;
86093;SDS011;76710;42.684;23.330;2024-03-23T07:21:32;16.55;;;8.93;;
86093;SDS011;76710;42.684;23.330;2024-03-23T07:23:57;18.60;;;10.35;;
86093;SDS011;76710;42.684;23.330;2024-03-23T07:26:23;15.52;;;8.20;;
86093;SDS011;76710;42.684;23.330;2024-03-23T07:28:48;15.68;;;7.88;;
86093;SDS011;76710;42.684;23.330;2024-03-23T07:31:14;18.33;;;9.05;;
86093;SDS011;76710;42.684;23.330;2024-03-23T07:33:44;16.00;;;8.70;;
86093;SDS011;76710;42.684;23.330;2024-03-23T07:36:10;13.52;;;8.35;;
86093;SDS011;76710;42.684;23.330;2024-03-23T07:38:36;18.60;;;8.82;;
86093;SDS011;76710;42.684;23.330;2024-03-23T07:41:02;18.08;;;10.23;;
86093;SDS011;76710;42.684;23.330;2024-03-23T07:43:32;19.67;;;11.10;;
86093;SDS011;76710;42.684;23.330;2024-03-23T07:45:58;18.50;;;9.27;;
86093;SDS011;76710;42.684;23.330;2024-03-23T07:48:24;14.75;;;8.35;;
86093;SDS011;76710;42.684;23.330;2024-03-23T07:51:23;15.45;;;8.68;;
86093;SDS011;76710;42.684;23.330;2024-03-23T07:53:49;14.75;;;8.60;;
86093;SDS011;76710;42.684;23.330;2024-03-23T07:56:18;15.45;;;8.85;;
86093;SDS011;76710;42.684;23.330;2024-03-23T07:58:45;18.80;;;10.23;;
86093;SDS011;76710;42.684;23.330;2024-03-23T08:03:37;17.02;;;8.38;;
86093;SDS011;76710;42.684;23.330;2024-03-23T08:06:14;14.40;;;8.23;;
86093;SDS011;76710;42.684;23.330;2024-03-23T08:08:42;31.55;;;18.60;;
86093;SDS011;76710;42.684;23.330;2024-03-23T08:11:08;13.75;;;8.43;;
86093;SDS011;76710;42.684;23.330;2024-03-23T08:13:34;15.95;;;8.18;;
86093;SDS011;76710;42.684;23.330;2024-03-23T08:16:02;13.90;;;8.98;;
86093;SDS011;76710;42.684;23.330;2024-03-23T08:18:28;15.48;;;7.82;;
86093;SDS011;76710;42.684;23.330;2024-03-23T08:23:23;16.13;;;9.20;;
86093;SDS011;76710;42.684;23.330;2024-03-23T08:25:52;19.05;;;8.85;;
86093;SDS011;76710;42.684;23.330;2024-03-23T08:28:22;14.65;;;7.97;;
86093;SDS011;76710;42.684;23.330;2024-03-23T08:30:47;12.70;;;8.07;;
86093;SDS011;76710;42.684;23.330;2024-03-23T08:33:14;15.45;;;8.45;;
86093;SDS011;76710;42.684;23.330;2024-03-23T08:38:06;15.50;;;8.85;;
86093;SDS011;76710;42.684;23.330;2024-03-23T08:40:31;15.18;;;7.72;;
86093;SDS011;76710;42.684;23.330;2024-03-23T08:45:23;12.50;;;7.63;;
86093;SDS011;76710;42.684;23.330;2024-03-23T08:47:49;14.20;;;8.55;;
86093;SDS011;76710;42.684;23.330;2024-03-23T08:52:40;14.30;;;7.88;;
86093;SDS011;76710;42.684;23.330;2024-03-23T08:55:06;13.38;;;7.90;;
86093;SDS011;76710;42.684;23.330;2024-03-23T08:57:32;13.30;;;7.90;;
86093;SDS011;76710;42.684;23.330;2024-03-23T09:02:23;16.10;;;8.13;;
86093;SDS011;76710;42.684;23.330;2024-03-23T09:07:14;18.13;;;8.93;;
86093;SDS011;76710;42.684;23.330;2024-03-23T09:12:05;18.15;;;8.82;;
86093;SDS011;76710;42.684;23.330;2024-03-23T09:16:56;15.55;;;8.63;;
86093;SDS011;76710;42.684;23.330;2024-03-23T09:21:47;15.03;;;7.67;;
86093;SDS011;76710;42.684;23.330;2024-03-23T09:24:14;15.18;;;8.52;;
86093;SDS011;76710;42.684;23.330;2024-03-23T09:29:05;11.65;;;6.95;;
86093;SDS011;76710;42.684;23.330;2024-03-23T09:33:57;14.63;;;7.97;;
86093;SDS011;76710;42.684;23.330;2024-03-23T09:36:23;12.65;;;7.90;;
86093;SDS011;76710;42.684;23.330;2024-03-23T09:38:48;15.35;;;8.60;;
86093;SDS011;76710;42.684;23.330;2024-03-23T09:41:14;19.00;;;7.55;;
86093;SDS011;76710;42.684;23.330;2024-03-23T09:43:40;14.80;;;8.43;;
86093;SDS011;76710;42.684;23.330;2024-03-23T09:48:31;13.50;;;8.20;;
86093;SDS011;76710;42.684;23.330;2024-03-23T09:53:22;15.52;;;8.73;;
86093;SDS011;76710;42.684;23.330;2024-03-23T09:58:15;15.35;;;8.02;;
86093;SDS011;76710;42.684;23.330;2024-03-23T10:00:42;14.43;;;7.53;;
86093;SDS011;76710;42.684;23.330;2024-03-23T10:03:08;11.40;;;7.20;;
86093;SDS011;76710;42.684;23.330;2024-03-23T10:05:36;12.95;;;7.88;;
86093;SDS011;76710;42.684;23.330;2024-03-23T10:10:39;13.35;;;7.25;;
86093;SDS011;76710;42.684;23.330;2024-03-23T10:13:05;20.83;;;9.52;;
86093;SDS011;76710;42.684;23.330;2024-03-23T10:15:30;14.90;;;8.65;;
86093;SDS011;76710;42.684;23.330;2024-03-23T10:18:02;14.23;;;7.75;;
86093;SDS011;76710;42.684;23.330;2024-03-23T10:20:43;14.30;;;7.75;;
86093;SDS011;76710;42.684;23.330;2024-03-23T10:23:18;11.80;;;7.90;;
86093;SDS011;76710;42.684;23.330;2024-03-23T10:25:44;14.10;;;7.70;;
86093;SDS011;76710;42.684;23.330;2024-03-23T10:28:11;12.82;;;7.25;;
86093;SDS011;76710;42.684;23.330;2024-03-23T10:30:36;12.13;;;6.72;;
86093;SDS011;76710;42.684;23.330;2024-03-23T10:33:11;14.60;;;7.43;;
86093;SDS011;76710;42.684;23.330;2024-03-23T10:35:38;12.27;;;7.30;;
86093;SDS011;76710;42.684;23.330;2024-03-23T10:38:07;12.98;;;7.10;;
86093;SDS011;76710;42.684;23.330;2024-03-23T10:40:36;12.25;;;7.93;;
86093;SDS011;76710;42.684;23.330;2024-03-23T10:43:04;11.98;;;6.90;;
86093;SDS011;76710;42.684;23.330;2024-03-23T10:45:33;8.82;;;6.32;;
86093;SDS011;76710;42.684;23.330;2024-03-23T10:47:59;9.90;;;6.47;;
86093;SDS011;76710;42.684;23.330;2024-03-23T10:50:24;14.63;;;6.72;;
86093;SDS011;76710;42.684;23.330;2024-03-23T10:52:50;13.52;;;6.20;;
86093;SDS011;76710;42.684;23.330;2024-03-23T10:55:18;12.00;;;6.40;;
86093;SDS011;76710;42.684;23.330;2024-03-23T10:57:53;12.50;;;7.28;;
86093;SDS011;76710;42.684;23.330;2024-03-23T11:00:20;7.95;;;5.50;;
86093;SDS011;76710;42.684;23.330;2024-03-23T11:02:48;9.80;;;5.72;;
86093;SDS011;76710;42.684;23.330;2024-03-23T11:07:51;11.18;;;6.80;;
86093;SDS011;76710;42.684;23.330;2024-03-23T11:10:25;10.05;;;5.38;;
86093;SDS011;76710;42.684;23.330;2024-03-23T11:12:55;8.88;;;5.57;;
86093;SDS011;76710;42.684;23.330;2024-03-23T11:15:22;12.88;;;5.60;;
86093;SDS011;76710;42.684;23.330;2024-03-23T11:18:03;10.52;;;5.88;;
86093;SDS011;76710;42.684;23.330;2024-03-23T11:20:32;10.50;;;6.90;;
86093;SDS011;76710;42.684;23.330;2024-03-23T11:22:59;9.25;;;5.63;;
86093;SDS011;76710;42.684;23.330;2024-03-23T11:25:25;8.88;;;5.70;;
86093;SDS011;76710;42.684;23.330;2024-03-23T11:27:52;9.55;;;5.95;;
86093;SDS011;76710;42.684;23.330;2024-03-23T11:32:49;10.70;;;5.05;;
86093;SDS011;76710;42.684;23.330;2024-03-23T11:38:13;11.55;;;5.82;;
86093;SDS011;76710;42.684;23.330;2024-03-23T11:40:43;8.32;;;5.20;;
86093;SDS011;76710;42.684;23.330;2024-03-23T11:43:12;10.25;;;5.70;;
86093;SDS011;76710;42.684;23.330;2024-03-23T11:45:39;10.68;;;6.13;;
86093;SDS011;76710;42.684;23.330;2024-03-23T11:48:13;10.40;;;5.38;;
86093;SDS011;76710;42.684;23.330;2024-03-23T11:50:42;9.75;;;5.53;;
86093;SDS011;76710;42.684;23.330;2024-03-23T11:55:41;10.05;;;5.82;;
86093;SDS011;76710;42.684;23.330;2024-03-23T11:58:10;12.60;;;5.30;;
86093;SDS011;76710;42.684;23.330;2024-03-23T12:00:36;8.35;;;5.45;;
86093;SDS011;76710;42.684;23.330;2024-03-23T12:03:02;10.48;;;5.63;;
86093;SDS011;76710;42.684;23.330;2024-03-23T12:05:28;10.05;;;4.65;;
86093;SDS011;76710;42.684;23.330;2024-03-23T12:08:41;9.32;;;4.32;;
86093;SDS011;76710;42.684;23.330;2024-03-23T12:11:08;7.55;;;4.85;;
86093;SDS011;76710;42.684;23.330;2024-03-23T12:13:36;7.60;;;4.53;;
86093;SDS011;76710;42.684;23.330;2024-03-23T12:16:24;7.47;;;4.20;;
86093;SDS011;76710;42.684;23.330;2024-03-23T12:18:51;8.35;;;4.05;;
86093;SDS011;76710;42.684;23.330;2024-03-23T12:21:17;7.88;;;4.72;;
86093;SDS011;76710;42.684;23.330;2024-03-23T12:23:44;8.65;;;4.40;;
86093;SDS011;76710;42.684;23.330;2024-03-23T12:26:11;9.70;;;5.43;;
86093;SDS011;76710;42.684;23.330;2024-03-23T12:31:03;10.65;;;4.88;;
86093;SDS011;76710;42.684;23.330;2024-03-23T12:33:33;8.75;;;5.10;;
86093;SDS011;76710;42.684;23.330;2024-03-23T12:38:24;10.10;;;4.18;;
86093;SDS011;76710;42.684;23.330;2024-03-23T12:43:18;6.97;;;2.80;;
86093;SDS011;76710;42.684;23.330;2024-03-23T12:45:50;7.25;;;3.20;;
86093;SDS011;76710;42.684;23.330;2024-03-23T12:48:16;8.02;;;4.60;;
86093;SDS011;76710;42.684;23.330;2024-03-23T12:53:07;7.93;;;3.28;;
86093;SDS011;76710;42.684;23.330;2024-03-23T12:57:59;5.70;;;2.78;;
86093;SDS011;76710;42.684;23.330;2024-03-23T13:02:50;4.97;;;1.92;;
86093;SDS011;76710;42.684;23.330;2024-03-23T13:05:16;2.60;;;1.70;;
86093;SDS011;76710;42.684;23.330;2024-03-23T13:10:07;3.47;;;1.83;;
86093;SDS011;76710;42.684;23.330;2024-03-23T13:12:34;2.78;;;1.30;;
86093;SDS011;76710;42.684;23.330;2024-03-23T13:17:25;1.65;;;0.90;;
86093;SDS011;76710;42.684;23.330;2024-03-23T13:19:52;3.03;;;1.00;;
86093;SDS011;76710;42.684;23.330;2024-03-23T13:22:19;2.72;;;1.30;;
86093;SDS011;76710;42.684;23.330;2024-03-23T13:24:48;2.35;;;1.00;;
86093;SDS011;76710;42.684;23.330;2024-03-23T13:29:40;2.30;;;1.30;;
86093;SDS011;76710;42.684;23.330;2024-03-23T13:32:06;2.42;;;1.00;;
86093;SDS011;76710;42.684;23.330;2024-03-23T13:36:58;2.63;;;0.80;;
86093;SDS011;76710;42.684;23.330;2024-03-23T13:41:50;3.05;;;1.20;;
86093;SDS011;76710;42.684;23.330;2024-03-23T13:46:41;2.92;;;0.85;;
86093;SDS011;76710;42.684;23.330;2024-03-23T13:49:28;2.50;;;1.00;;
86093;SDS011;76710;42.684;23.330;2024-03-23T13:51:55;3.33;;;1.30;;
86093;SDS011;76710;42.684;23.330;2024-03-23T13:54:23;3.28;;;1.25;;
86093;SDS011;76710;42.684;23.330;2024-03-23T13:56:49;2.97;;;1.40;;
86093;SDS011;76710;42.684;23.330;2024-03-23T13:59:15;2.70;;;1.10;;
86093;SDS011;76710;42.684;23.330;2024-03-23T14:01:42;3.92;;;1.17;;
86093;SDS011;76710;42.684;23.330;2024-03-23T14:04:08;3.67;;;1.40;;
86093;SDS011;76710;42.684;23.330;2024-03-23T14:08:59;2.33;;;1.10;;
86093;SDS011;76710;42.684;23.330;2024-03-23T14:11:24;3.10;;;1.00;;
86093;SDS011;76710;42.684;23.330;2024-03-23T14:13:52;2.42;;;1.20;;
86093;SDS011;76710;42.684;23.330;2024-03-23T14:16:18;2.22;;;0.88;;
86093;SDS011;76710;42.684;23.330;2024-03-23T14:21:11;5.15;;;1.80;;
86093;SDS011;76710;42.684;23.330;2024-03-23T14:23:36;2.13;;;1.00;;
86093;SDS011;76710;42.684;23.330;2024-03-23T14:26:02;2.38;;;1.10;;
86093;SDS011;76710;42.684;23.330;2024-03-23T14:28:28;3.75;;;1.15;;
86093;SDS011;76710;42.684;23.330;2024-03-23T14:30:55;3.97;;;1.20;;
86093;SDS011;76710;42.684;23.330;2024-03-23T14:33:21;4.97;;;1.10;;
86093;SDS011;76710;42.684;23.330;2024-03-23T14:35:56;2.13;;;1.15;;
86093;SDS011;76710;42.684;23.330;2024-03-23T14:38:22;3.22;;;1.02;;
86093;SDS011;76710;42.684;23.330;2024-03-23T14:40:48;1.83;;;0.80;;
86093;SDS011;76710;42.684;23.330;2024-03-23T14:43:14;2.10;;;0.90;;
86093;SDS011;76710;42.684;23.330;2024-03-23T14:48:34;2.40;;;1.02;;
86093;SDS011;76710;42.684;23.330;2024-03-23T14:51:03;2.33;;;1.20;;
86093;SDS011;76710;42.684;23.330;2024-03-23T14:53:33;3.05;;;1.10;;
86093;SDS011;76710;42.684;23.330;2024-03-23T14:56:08;4.28;;;1.60;;
86093;SDS011;76710;42.684;23.330;2024-03-23T14:58:38;3.28;;;1.67;;
86093;SDS011;76710;42.684;23.330;2024-03-23T15:01:04;3.15;;;1.90;;
86093;SDS011;76710;42.684;23.330;2024-03-23T15:06:04;3.72;;;2.10;;
86093;SDS011;76710;42.684;23.330;2024-03-23T15:08:30;3.63;;;1.52;;
86093;SDS011;76710;42.684;23.330;2024-03-23T15:10:59;3.65;;;1.75;;
86093;SDS011;76710;42.684;23.330;2024-03-23T15:13:25;6.45;;;1.83;;
86093;SDS011;76710;42.684;23.330;2024-03-23T15:15:51;4.13;;;1.90;;
86093;SDS011;76710;42.684;23.330;2024-03-23T15:18:17;3.50;;;1.60;;
86093;SDS011;76710;42.684;23.330;2024-03-23T15:21:00;3.15;;;1.63;;
86093;SDS011;76710;42.684;23.330;2024-03-23T15:23:28;4.60;;;2.03;;
86093;SDS011;76710;42.684;23.330;2024-03-23T15:26:00;2.90;;;1.75;;
86093;SDS011;76710;42.684;23.330;2024-03-23T15:28:26;5.18;;;1.92;;
86093;SDS011;76710;42.684;23.330;2024-03-23T15:31:03;6.05;;;3.70;;
86093;SDS011;76710;42.684;23.330;2024-03-23T15:33:32;6.07;;;2.08;;
86093;SDS011;76710;42.684;23.330;2024-03-23T15:38:27;4.05;;;2.05;;
86093;SDS011;76710;42.684;23.330;2024-03-23T15:40:54;4.40;;;1.63;;
86093;SDS011;76710;42.684;23.330;2024-03-23T15:43:20;3.28;;;1.70;;
86093;SDS011;76710;42.684;23.330;2024-03-23T15:45:58;4.57;;;1.83;;
86093;SDS011;76710;42.684;23.330;2024-03-23T15:48:25;3.28;;;2.03;;
86093;SDS011;76710;42.684;23.330;2024-03-23T15:50:55;4.75;;;2.17;;
86093;SDS011;76710;42.684;23.330;2024-03-23T15:53:22;5.32;;;1.98;;
86093;SDS011;76710;42.684;23.330;2024-03-23T15:55:55;4.90;;;2.20;;
86093;SDS011;76710;42.684;23.330;2024-03-23T15:58:24;4.15;;;1.85;;
86093;SDS011;76710;42.684;23.330;2024-03-23T16:00:57;4.45;;;2.03;;
86093;SDS011;76710;42.684;23.330;2024-03-23T16:03:30;6.25;;;2.40;;
86093;SDS011;76710;42.684;23.330;2024-03-23T16:05:57;4.80;;;2.50;;
86093;SDS011;76710;42.684;23.330;2024-03-23T16:08:33;2.50;;;1.30;;
86093;SDS011;76710;42.684;23.330;2024-03-23T16:11:05;3.15;;;1.40;;
86093;SDS011;76710;42.684;23.330;2024-03-23T16:13:32;2.70;;;1.30;;
86093;SDS011;76710;42.684;23.330;2024-03-23T16:16:06;2.15;;;1.10;;
86093;SDS011;76710;42.684;23.330;2024-03-23T16:18:32;5.05;;;1.33;;
86093;SDS011;76710;42.684;23.330;2024-03-23T16:21:02;3.53;;;1.52;;
86093;SDS011;76710;42.684;23.330;2024-03-23T16:23:29;4.10;;;1.98;;
86093;SDS011;76710;42.684;23.330;2024-03-23T16:25:55;4.50;;;1.50;;
86093;SDS011;76710;42.684;23.330;2024-03-23T16:28:22;3.33;;;1.67;;
86093;SDS011;76710;42.684;23.330;2024-03-23T16:30:58;26.80;;;13.60;;
86093;SDS011;76710;42.684;23.330;2024-03-23T16:33:25;7.40;;;3.50;;
86093;SDS011;76710;42.684;23.330;2024-03-23T16:38:31;12.45;;;5.40;;
86093;SDS011;76710;42.684;23.330;2024-03-23T16:40:58;5.30;;;2.45;;
86093;SDS011;76710;42.684;23.330;2024-03-23T16:43:25;5.22;;;2.47;;
86093;SDS011;76710;42.684;23.330;2024-03-23T16:46:02;6.03;;;3.13;;
86093;SDS011;76710;42.684;23.330;2024-03-23T16:48:32;5.60;;;2.40;;
86093;SDS011;76710;42.684;23.330;2024-03-23T16:51:01;7.95;;;2.85;;
86093;SDS011;76710;42.684;23.330;2024-03-23T16:53:31;6.25;;;2.88;;
86093;SDS011;76710;42.684;23.330;2024-03-23T16:55:58;6.78;;;2.70;;
86093;SDS011;76710;42.684;23.330;2024-03-23T16:58:28;8.45;;;2.97;;
86093;SDS011;76710;42.684;23.330;2024-03-23T17:01:04;6.13;;;2.92;;